sensor_id;sensor_type;location;lat;lon;timestamp;pressure;altitude;pressure_sealevel;temperature;humidity
32759;BME280;19125;52.360;9.974;2023-04-29T00:01:14;29055.44;;;-145.17;68.34
32759;BME280;19125;52.360;9.974;2023-04-29T00:03:39;28554.75;;;-145.17;68.66
32759;BME280;19125;52.360;9.974;2023-04-29T00:06:04;28054.09;;;-145.17;68.69
32759;BME280;19125;52.360;9.974;2023-04-29T00:08:29;27553.50;;;-145.17;68.64
32759;BME280;19125;52.360;9.974;2023-04-29T00:10:55;27303.25;;;-145.17;68.66
32759;BME280;19125;52.360;9.974;2023-04-29T00:13:20;26802.75;;;-145.17;68.73
32759;BME280;19125;52.360;9.974;2023-04-29T00:15:45;26052.16;;;-145.17;68.99
32759;BME280;19125;52.360;9.974;2023-04-29T00:18:11;25301.69;;;-145.17;69.04
32759;BME280;19125;52.360;9.974;2023-04-29T00:20:38;25051.56;;;-145.17;69.14
32759;BME280;19125;52.360;9.974;2023-04-29T00:23:03;25551.84;;;-145.17;68.75
32759;BME280;19125;52.360;9.974;2023-04-29T00:25:29;26052.16;;;-145.17;68.99
32759;BME280;19125;52.360;9.974;2023-04-29T00:27:54;26552.53;;;-145.17;68.95
32759;BME280;19125;52.360;9.974;2023-04-29T00:30:20;27303.25;;;-145.17;68.94
32759;BME280;19125;52.360;9.974;2023-04-29T00:32:45;27553.50;;;-145.17;68.98
32759;BME280;19125;52.360;9.974;2023-04-29T00:35:11;27803.78;;;-145.17;68.87
32759;BME280;19125;52.360;9.974;2023-04-29T00:37:36;27553.50;;;-145.17;68.76
32759;BME280;19125;52.360;9.974;2023-04-29T00:40:02;27303.25;;;-145.17;68.91
32759;BME280;19125;52.360;9.974;2023-04-29T00:42:30;27303.25;;;-145.17;68.75
32759;BME280;19125;52.360;9.974;2023-04-29T00:44:57;27053.00;;;-145.17;68.96
32759;BME280;19125;52.360;9.974;2023-04-29T00:47:22;26552.53;;;-145.17;69.10
32759;BME280;19125;52.360;9.974;2023-04-29T00:49:48;26302.34;;;-145.17;69.20
32759;BME280;19125;52.360;9.974;2023-04-29T00:52:13;26302.34;;;-145.17;69.08
32759;BME280;19125;52.360;9.974;2023-04-29T00:54:39;26052.16;;;-145.17;69.34
32759;BME280;19125;52.360;9.974;2023-04-29T00:57:05;25802.00;;;-145.17;69.14
32759;BME280;19125;52.360;9.974;2023-04-29T00:59:32;24551.38;;;-145.17;69.32
32759;BME280;19125;52.360;9.974;2023-04-29T01:02:00;23801.22;;;-145.17;69.66
32759;BME280;19125;52.360;9.974;2023-04-29T01:04:25;22801.19;;;-145.17;69.53
32759;BME280;19125;52.360;9.974;2023-04-29T01:09:59;21551.56;;;-145.17;69.72
32759;BME280;19125;52.360;9.974;2023-04-29T01:12:30;20801.97;;;-145.17;69.76
32759;BME280;19125;52.360;9.974;2023-04-29T01:17:55;19802.72;;;-145.17;69.78
32759;BME280;19125;52.360;9.974;2023-04-29T01:20:19;19552.97;;;-145.17;69.94
32759;BME280;19125;52.360;9.974;2023-04-29T01:22:46;18803.75;;;-145.17;70.00
32759;BME280;19125;52.360;9.974;2023-04-29T01:25:11;17805.03;;;-145.17;70.04
32759;BME280;19125;52.360;9.974;2023-04-29T01:28:00;16556.97;;;-145.17;70.18
32759;BME280;19125;52.360;9.974;2023-04-29T01:39:26;9077.13;;;-145.17;71.30
32759;BME280;19125;52.360;9.974;2023-04-29T01:42:06;7333.91;;;-145.17;71.50
32759;BME280;19125;52.360;9.974;2023-04-29T01:44:35;5342.63;;;-145.17;71.81
32759;BME280;19125;52.360;9.974;2023-04-29T01:47:02;3849.81;;;-145.17;72.18
32759;BME280;19125;52.360;9.974;2023-04-29T01:49:28;2108.97;;;-145.17;72.30
32759;BME280;19125;52.360;9.974;2023-04-29T01:51:54;865.97;;;-145.17;72.47
32759;BME280;19125;52.360;9.974;2023-04-29T01:54:20;-625.09;;;-145.17;72.73
32759;BME280;19125;52.360;9.974;2023-04-29T01:56:46;-1867.22;;;-145.17;72.79
32759;BME280;19125;52.360;9.974;2023-04-29T01:59:12;-3108.94;;;-145.17;72.86
32759;BME280;19125;52.360;9.974;2023-04-29T02:01:37;-4350.25;;;-145.17;73.25
32759;BME280;19125;52.360;9.974;2023-04-29T02:04:02;-5343.00;;;-145.17;73.39
32759;BME280;19125;52.360;9.974;2023-04-29T02:06:28;-6583.59;;;-145.17;73.13
32759;BME280;19125;52.360;9.974;2023-04-29T02:08:56;-7823.78;;;-145.17;73.68
32759;BME280;19125;52.360;9.974;2023-04-29T02:11:21;-8815.66;;;-145.17;73.88
32759;BME280;19125;52.360;9.974;2023-04-29T02:13:47;-9559.38;;;-145.17;74.01
32759;BME280;19125;52.360;9.974;2023-04-29T02:16:13;-10302.97;;;-145.17;74.02
32759;BME280;19125;52.360;9.974;2023-04-29T02:18:39;-11294.19;;;-145.17;74.24
32759;BME280;19125;52.360;9.974;2023-04-29T02:21:05;-11789.69;;;-145.17;74.41
32759;BME280;19125;52.360;9.974;2023-04-29T02:23:31;-12285.16;;;-145.17;74.71
32759;BME280;19125;52.360;9.974;2023-04-29T02:25:58;-12780.53;;;-145.17;74.49
32759;BME280;19125;52.360;9.974;2023-04-29T02:28:23;-13275.88;;;-145.17;74.75
32759;BME280;19125;52.360;9.974;2023-04-29T02:30:48;-13523.50;;;-145.17;74.46
32759;BME280;19125;52.360;9.974;2023-04-29T02:33:14;-14018.72;;;-145.17;74.81
32759;BME280;19125;52.360;9.974;2023-04-29T02:35:40;-14266.31;;;-145.17;75.04
32759;BME280;19125;52.360;9.974;2023-04-29T02:38:05;-14513.88;;;-145.17;75.19
32759;BME280;19125;52.360;9.974;2023-04-29T02:40:31;-14761.44;;;-145.17;75.03
32759;BME280;19125;52.360;9.974;2023-04-29T02:42:57;-14761.44;;;-145.17;75.19
32759;BME280;19125;52.360;9.974;2023-04-29T02:45:22;-15009.00;;;-145.17;75.23
32759;BME280;19125;52.360;9.974;2023-04-29T02:47:47;-14761.44;;;-145.17;74.88
32759;BME280;19125;52.360;9.974;2023-04-29T02:50:13;-14761.44;;;-145.17;74.96
32759;BME280;19125;52.360;9.974;2023-04-29T02:52:38;-14513.88;;;-145.17;74.87
32759;BME280;19125;52.360;9.974;2023-04-29T02:55:06;-14266.31;;;-145.17;74.69
32759;BME280;19125;52.360;9.974;2023-04-29T02:57:31;-14266.31;;;-145.17;74.65
32759;BME280;19125;52.360;9.974;2023-04-29T02:59:57;-14018.72;;;-145.17;74.69
32759;BME280;19125;52.360;9.974;2023-04-29T03:02:23;-14018.72;;;-145.17;74.63
32759;BME280;19125;52.360;9.974;2023-04-29T03:04:48;-14018.72;;;-145.17;74.62
32759;BME280;19125;52.360;9.974;2023-04-29T03:07:13;-14018.72;;;-145.17;74.54
32759;BME280;19125;52.360;9.974;2023-04-29T03:09:41;-14018.72;;;-145.17;74.50
32759;BME280;19125;52.360;9.974;2023-04-29T03:12:06;-14018.72;;;-145.17;74.67
32759;BME280;19125;52.360;9.974;2023-04-29T03:14:32;-13771.13;;;-145.17;74.73
32759;BME280;19125;52.360;9.974;2023-04-29T03:16:57;-13771.13;;;-145.17;74.55
32759;BME280;19125;52.360;9.974;2023-04-29T03:19:22;-13523.50;;;-145.17;74.55
32759;BME280;19125;52.360;9.974;2023-04-29T03:21:48;-13275.88;;;-145.17;74.46
32759;BME280;19125;52.360;9.974;2023-04-29T03:24:14;-13275.88;;;-145.17;74.51
32759;BME280;19125;52.360;9.974;2023-04-29T03:26:40;-13028.22;;;-145.17;74.57
32759;BME280;19125;52.360;9.974;2023-04-29T03:29:07;-13028.22;;;-145.17;74.41
32759;BME280;19125;52.360;9.974;2023-04-29T03:31:32;-12532.84;;;-145.17;74.11
32759;BME280;19125;52.360;9.974;2023-04-29T03:33:58;-12285.16;;;-145.17;74.09
32759;BME280;19125;52.360;9.974;2023-04-29T03:36:23;-12285.16;;;-145.17;74.18
32759;BME280;19125;52.360;9.974;2023-04-29T03:38:49;-12037.44;;;-145.17;74.26
32759;BME280;19125;52.360;9.974;2023-04-29T03:41:14;-11789.69;;;-145.17;74.41
32759;BME280;19125;52.360;9.974;2023-04-29T03:43:40;-11789.69;;;-145.17;74.01
32759;BME280;19125;52.360;9.974;2023-04-29T03:46:08;-11541.97;;;-145.17;74.25
32759;BME280;19125;52.360;9.974;2023-04-29T03:48:33;-11294.19;;;-145.17;73.95
32759;BME280;19125;52.360;9.974;2023-04-29T03:50:58;-11294.19;;;-145.17;74.22
32759;BME280;19125;52.360;9.974;2023-04-29T03:53:24;-11046.41;;;-145.17;73.87
32759;BME280;19125;52.360;9.974;2023-04-29T03:55:50;-11294.19;;;-145.17;74.07
32759;BME280;19125;52.360;9.974;2023-04-29T03:58:15;-11541.97;;;-145.17;74.39
32759;BME280;19125;52.360;9.974;2023-04-29T04:00:41;-11789.69;;;-145.17;74.65
32759;BME280;19125;52.360;9.974;2023-04-29T04:03:06;-12037.44;;;-145.17;74.46
32759;BME280;19125;52.360;9.974;2023-04-29T04:05:31;-12285.16;;;-145.17;74.53
32759;BME280;19125;52.360;9.974;2023-04-29T04:07:56;-12780.53;;;-145.17;74.81
32759;BME280;19125;52.360;9.974;2023-04-29T04:10:22;-13028.22;;;-145.17;74.85
32759;BME280;19125;52.360;9.974;2023-04-29T04:12:47;-13028.22;;;-145.17;74.79
32759;BME280;19125;52.360;9.974;2023-04-29T04:15:12;-13275.88;;;-145.17;74.73
32759;BME280;19125;52.360;9.974;2023-04-29T04:17:38;-13275.88;;;-145.17;74.62
32759;BME280;19125;52.360;9.974;2023-04-29T04:20:04;-13275.88;;;-145.17;74.85
32759;BME280;19125;52.360;9.974;2023-04-29T04:22:29;-13275.88;;;-145.17;74.73
32759;BME280;19125;52.360;9.974;2023-04-29T04:24:55;-13275.88;;;-145.17;74.80
32759;BME280;19125;52.360;9.974;2023-04-29T04:27:20;-13028.22;;;-145.17;74.38
32759;BME280;19125;52.360;9.974;2023-04-29T04:29:46;-13028.22;;;-145.17;74.55
32759;BME280;19125;52.360;9.974;2023-04-29T04:32:11;-12780.53;;;-145.17;74.24
32759;BME280;19125;52.360;9.974;2023-04-29T04:34:36;-12780.53;;;-145.17;74.42
32759;BME280;19125;52.360;9.974;2023-04-29T04:37:03;-12532.84;;;-145.17;74.28
32759;BME280;19125;52.360;9.974;2023-04-29T04:39:29;-12532.84;;;-145.17;74.26
32759;BME280;19125;52.360;9.974;2023-04-29T04:41:54;-12532.84;;;-145.17;74.32
32759;BME280;19125;52.360;9.974;2023-04-29T04:44:20;-12780.53;;;-145.17;74.59
32759;BME280;19125;52.360;9.974;2023-04-29T04:46:45;-13028.22;;;-145.17;74.79
32759;BME280;19125;52.360;9.974;2023-04-29T04:49:11;-13028.22;;;-145.17;74.50
32759;BME280;19125;52.360;9.974;2023-04-29T04:51:36;-13275.88;;;-145.17;75.06
32759;BME280;19125;52.360;9.974;2023-04-29T04:54:01;-13523.50;;;-145.17;74.61
32759;BME280;19125;52.360;9.974;2023-04-29T04:56:27;-13771.13;;;-145.17;75.12
32759;BME280;19125;52.360;9.974;2023-04-29T04:58:52;-14018.72;;;-145.17;75.19
32759;BME280;19125;52.360;9.974;2023-04-29T05:01:17;-14266.31;;;-145.17;75.03
32759;BME280;19125;52.360;9.974;2023-04-29T05:03:42;-14266.31;;;-145.17;75.31
32759;BME280;19125;52.360;9.974;2023-04-29T05:06:08;-14513.88;;;-145.17;75.33
32759;BME280;19125;52.360;9.974;2023-04-29T05:08:33;-14513.88;;;-145.17;75.25
32759;BME280;19125;52.360;9.974;2023-04-29T05:10:58;-14761.44;;;-145.17;75.52
32759;BME280;19125;52.360;9.974;2023-04-29T05:13:24;-14761.44;;;-145.17;75.65
32759;BME280;19125;52.360;9.974;2023-04-29T05:15:49;-14761.44;;;-145.17;75.29
32759;BME280;19125;52.360;9.974;2023-04-29T05:18:15;-14761.44;;;-145.17;75.42
32759;BME280;19125;52.360;9.974;2023-04-29T05:20:40;-14761.44;;;-145.17;75.56
32759;BME280;19125;52.360;9.974;2023-04-29T05:23:05;-14513.88;;;-145.17;74.82
32759;BME280;19125;52.360;9.974;2023-04-29T05:25:31;-14266.31;;;-145.17;75.09
32759;BME280;19125;52.360;9.974;2023-04-29T05:27:56;-14018.72;;;-145.17;74.47
32759;BME280;19125;52.360;9.974;2023-04-29T05:30:22;-13523.50;;;-145.17;74.50
32759;BME280;19125;52.360;9.974;2023-04-29T05:32:47;-13275.88;;;-145.17;74.65
32759;BME280;19125;52.360;9.974;2023-04-29T05:35:15;-13028.22;;;-145.17;74.50
32759;BME280;19125;52.360;9.974;2023-04-29T05:37:41;-12780.53;;;-145.17;74.46
32759;BME280;19125;52.360;9.974;2023-04-29T05:40:07;-12532.84;;;-145.17;74.42
32759;BME280;19125;52.360;9.974;2023-04-29T05:42:32;-12285.16;;;-145.17;74.22
32759;BME280;19125;52.360;9.974;2023-04-29T05:44:57;-12037.44;;;-145.17;73.86
32759;BME280;19125;52.360;9.974;2023-04-29T05:47:23;-11789.69;;;-145.17;74.10
32759;BME280;19125;52.360;9.974;2023-04-29T05:49:48;-11541.97;;;-145.17;73.95
32759;BME280;19125;52.360;9.974;2023-04-29T05:52:14;-11046.41;;;-145.17;73.91
32759;BME280;19125;52.360;9.974;2023-04-29T05:54:39;-10550.78;;;-145.17;74.08
32759;BME280;19125;52.360;9.974;2023-04-29T05:57:06;-10550.78;;;-145.17;73.56
32759;BME280;19125;52.360;9.974;2023-04-29T05:59:32;-10550.78;;;-145.17;74.23
32759;BME280;19125;52.360;9.974;2023-04-29T06:01:58;-10550.78;;;-145.17;73.74
32759;BME280;19125;52.360;9.974;2023-04-29T06:04:25;-10302.97;;;-145.17;74.04
32759;BME280;19125;52.360;9.974;2023-04-29T06:06:51;-10055.13;;;-145.17;74.11
32759;BME280;19125;52.360;9.974;2023-04-29T06:09:21;-10302.97;;;-145.17;74.16
32759;BME280;19125;52.360;9.974;2023-04-29T06:11:46;-10055.13;;;-145.17;73.80
32759;BME280;19125;52.360;9.974;2023-04-29T06:14:12;-9807.25;;;-145.17;73.78
32759;BME280;19125;52.360;9.974;2023-04-29T06:16:38;-9559.38;;;-145.17;73.62
32759;BME280;19125;52.360;9.974;2023-04-29T06:19:04;-9063.56;;;-145.17;73.33
32759;BME280;19125;52.360;9.974;2023-04-29T06:21:29;-8319.75;;;-145.17;73.21
32759;BME280;19125;52.360;9.974;2023-04-29T06:23:55;-7823.78;;;-145.17;73.43
32759;BME280;19125;52.360;9.974;2023-04-29T06:26:21;-7327.75;;;-145.17;73.49
32759;BME280;19125;52.360;9.974;2023-04-29T06:28:46;-6583.59;;;-145.17;73.37
32759;BME280;19125;52.360;9.974;2023-04-29T06:31:12;-6583.59;;;-145.17;73.16
32759;BME280;19125;52.360;9.974;2023-04-29T06:33:37;-6087.41;;;-145.17;73.08
32759;BME280;19125;52.360;9.974;2023-04-29T06:36:03;-5094.84;;;-145.17;72.64
32759;BME280;19125;52.360;9.974;2023-04-29T06:38:29;-3853.78;;;-145.17;72.30
32759;BME280;19125;52.360;9.974;2023-04-29T06:40:54;-3108.94;;;-145.17;72.20
32759;BME280;19125;52.360;9.974;2023-04-29T06:43:21;-2363.94;;;-145.17;72.16
32759;BME280;19125;52.360;9.974;2023-04-29T06:45:47;-1618.84;;;-145.17;72.06
32759;BME280;19125;52.360;9.974;2023-04-29T06:48:12;-128.16;;;-145.17;72.00
32759;BME280;19125;52.360;9.974;2023-04-29T06:50:38;1860.31;;;-145.17;71.79
32759;BME280;19125;52.360;9.974;2023-04-29T06:53:03;3103.63;;;-145.17;71.45
32759;BME280;19125;52.360;9.974;2023-04-29T06:55:28;4844.97;;;-145.17;70.95
32759;BME280;19125;52.360;9.974;2023-04-29T06:57:54;7084.94;;;-145.17;70.93
32759;BME280;19125;52.360;9.974;2023-04-29T07:00:19;8579.00;;;-145.17;70.97
32759;BME280;19125;52.360;9.974;2023-04-29T07:02:46;9824.47;;;-145.17;70.59
32759;BME280;19125;52.360;9.974;2023-04-29T07:05:12;11818.06;;;-145.17;70.12
32759;BME280;19125;52.360;9.974;2023-04-29T07:07:37;13563.31;;;-145.17;70.31
32759;BME280;19125;52.360;9.974;2023-04-29T07:10:03;15808.34;;;-145.17;69.63
32759;BME280;19125;52.360;9.974;2023-04-29T07:12:28;20801.97;;;-145.17;69.25
32759;BME280;19125;52.360;9.974;2023-04-29T07:14:53;26052.16;;;-145.17;68.74
32759;BME280;19125;52.360;9.974;2023-04-29T07:17:19;33564.69;;;-145.17;67.62
32759;BME280;19125;52.360;9.974;2023-04-29T07:19:44;39585.13;;;-145.17;67.29
32759;BME280;19125;52.360;9.974;2023-04-29T07:22:10;45363.34;;;-145.17;66.87
32759;BME280;19125;52.360;9.974;2023-04-29T07:24:35;54676.56;;;-145.17;65.96
32759;BME280;19125;52.360;9.974;2023-04-29T07:27:00;62748.91;;;-145.17;65.35
32759;BME280;19125;52.360;9.974;2023-04-29T07:29:25;75072.25;;;-145.17;64.29
32759;BME280;19125;52.360;9.974;2023-04-29T07:31:51;81649.56;;;-145.17;63.53
32759;BME280;19125;52.360;9.974;2023-04-29T07:34:16;84584.19;;;-145.17;62.53
32759;BME280;19125;52.360;9.974;2023-04-29T07:36:41;85697.16;;;-145.17;62.22
32759;BME280;19125;52.360;9.974;2023-04-29T07:39:07;86308.31;;;-145.17;61.24
32759;BME280;19125;52.360;9.974;2023-04-29T07:41:32;86594.06;;;-145.17;60.64
32759;BME280;19125;52.360;9.974;2023-04-29T07:43:57;86731.00;;;-145.17;59.66
32759;BME280;19125;52.360;9.974;2023-04-29T07:46:23;86788.56;;;-145.17;58.95
32759;BME280;19125;52.360;9.974;2023-04-29T07:48:48;86814.38;;;-145.17;58.51
32759;BME280;19125;52.360;9.974;2023-04-29T07:51:14;86848.13;;;-145.17;58.73
32759;BME280;19125;52.360;9.974;2023-04-29T07:53:40;86836.19;;;-145.17;58.63
32759;BME280;19125;52.360;9.974;2023-04-29T07:56:06;86792.53;;;-145.17;57.94
32759;BME280;19125;52.360;9.974;2023-04-29T07:58:32;86850.09;;;-145.17;57.28
32759;BME280;19125;52.360;9.974;2023-04-29T08:01:13;86820.31;;;-145.17;57.15
32759;BME280;19125;52.360;9.974;2023-04-29T08:03:39;86754.84;;;-145.17;56.04
32759;BME280;19125;52.360;9.974;2023-04-29T08:06:05;86770.72;;;-145.17;55.86
32759;BME280;19125;52.360;9.974;2023-04-29T08:08:31;86810.41;;;-145.17;55.72
32759;BME280;19125;52.360;9.974;2023-04-29T08:10:57;86740.94;;;-145.17;56.00
32759;BME280;19125;52.360;9.974;2023-04-29T08:13:22;86742.91;;;-145.17;55.65
32759;BME280;19125;52.360;9.974;2023-04-29T08:15:48;86723.06;;;-145.17;54.59
32759;BME280;19125;52.360;9.974;2023-04-29T08:18:13;86729.03;;;-145.17;54.32
32759;BME280;19125;52.360;9.974;2023-04-29T08:20:39;86734.97;;;-145.17;54.29
32759;BME280;19125;52.360;9.974;2023-04-29T08:23:04;86701.25;;;-145.17;53.63
32759;BME280;19125;52.360;9.974;2023-04-29T08:25:29;86584.16;;;-145.17;52.84
32759;BME280;19125;52.360;9.974;2023-04-29T08:27:55;86486.91;;;-145.17;51.41
32759;BME280;19125;52.360;9.974;2023-04-29T08:30:21;86455.16;;;-145.17;50.09
32759;BME280;19125;52.360;9.974;2023-04-29T08:32:47;86403.56;;;-145.17;49.47
32759;BME280;19125;52.360;9.974;2023-04-29T08:35:12;86445.25;;;-145.17;49.03
32759;BME280;19125;52.360;9.974;2023-04-29T08:37:38;86393.63;;;-145.17;48.97
32759;BME280;19125;52.360;9.974;2023-04-29T08:40:03;86367.84;;;-145.17;48.41
32759;BME280;19125;52.360;9.974;2023-04-29T08:42:34;86373.78;;;-145.17;48.44
32759;BME280;19125;52.360;9.974;2023-04-29T08:45:01;86361.88;;;-145.17;48.19
32759;BME280;19125;52.360;9.974;2023-04-29T08:47:32;86326.16;;;-145.17;46.57
32759;BME280;19125;52.360;9.974;2023-04-29T08:50:05;86314.25;;;-145.17;46.24
32759;BME280;19125;52.360;9.974;2023-04-29T08:52:31;86334.09;;;-145.17;46.10
32759;BME280;19125;52.360;9.974;2023-04-29T08:55:00;86355.94;;;-145.17;45.52
32759;BME280;19125;52.360;9.974;2023-04-29T08:57:29;86306.31;;;-145.17;44.92
32759;BME280;19125;52.360;9.974;2023-04-29T09:00:05;86288.47;;;-145.17;44.74
32759;BME280;19125;52.360;9.974;2023-04-29T09:02:31;86338.06;;;-145.17;45.96
32759;BME280;19125;52.360;9.974;2023-04-29T09:05:04;86346.00;;;-145.17;47.32
32759;BME280;19125;52.360;9.974;2023-04-29T09:07:31;86359.91;;;-145.17;47.33
32759;BME280;19125;52.360;9.974;2023-04-29T09:09:58;86346.00;;;-145.17;47.04
32759;BME280;19125;52.360;9.974;2023-04-29T09:12:23;86338.06;;;-145.17;47.15
32759;BME280;19125;52.360;9.974;2023-04-29T09:14:49;86324.19;;;-145.17;46.84
32759;BME280;19125;52.360;9.974;2023-04-29T09:17:14;86330.13;;;-145.17;46.40
32759;BME280;19125;52.360;9.974;2023-04-29T09:19:40;86334.09;;;-145.17;45.87
32759;BME280;19125;52.360;9.974;2023-04-29T09:22:07;86322.19;;;-145.17;45.78
32759;BME280;19125;52.360;9.974;2023-04-29T09:24:33;86260.69;;;-145.17;45.57
32759;BME280;19125;52.360;9.974;2023-04-29T09:26:59;86270.59;;;-145.17;44.72
32759;BME280;19125;52.360;9.974;2023-04-29T09:29:24;86264.66;;;-145.17;44.59
32759;BME280;19125;52.360;9.974;2023-04-29T09:31:50;86242.81;;;-145.17;44.41
32759;BME280;19125;52.360;9.974;2023-04-29T09:34:32;86228.94;;;-145.17;44.38
32759;BME280;19125;52.360;9.974;2023-04-29T09:36:59;86177.34;;;-145.17;43.60
32759;BME280;19125;52.360;9.974;2023-04-29T09:39:25;86193.22;;;-145.17;44.05
32759;BME280;19125;52.360;9.974;2023-04-29T09:44:32;86165.44;;;-145.17;43.83
32759;BME280;19125;52.360;9.974;2023-04-29T09:47:04;86258.69;;;-145.17;44.29
32759;BME280;19125;52.360;9.974;2023-04-29T09:49:33;86254.72;;;-145.17;44.27
32759;BME280;19125;52.360;9.974;2023-04-29T09:52:05;86250.75;;;-145.17;43.77
32759;BME280;19125;52.360;9.974;2023-04-29T09:54:32;86258.69;;;-145.17;43.73
32759;BME280;19125;52.360;9.974;2023-04-29T09:56:59;86274.56;;;-145.17;43.86
32759;BME280;19125;52.360;9.974;2023-04-29T09:59:26;86262.66;;;-145.17;43.85
32759;BME280;19125;52.360;9.974;2023-04-29T10:01:54;86230.91;;;-145.17;42.27
32759;BME280;19125;52.360;9.974;2023-04-29T10:04:21;86274.56;;;-145.17;42.31
32759;BME280;19125;52.360;9.974;2023-04-29T10:06:48;86276.56;;;-145.17;43.29
32759;BME280;19125;52.360;9.974;2023-04-29T10:09:15;86340.06;;;-145.17;44.05
32759;BME280;19125;52.360;9.974;2023-04-29T10:11:44;86288.47;;;-145.17;44.30
32759;BME280;19125;52.360;9.974;2023-04-29T10:14:18;86322.19;;;-145.17;44.25
32759;BME280;19125;52.360;9.974;2023-04-29T10:16:46;86338.06;;;-145.17;44.33
32759;BME280;19125;52.360;9.974;2023-04-29T10:19:17;86294.41;;;-145.17;44.29
32759;BME280;19125;52.360;9.974;2023-04-29T10:21:43;86254.72;;;-145.17;44.24
32759;BME280;19125;52.360;9.974;2023-04-29T10:24:09;86234.88;;;-145.17;43.99
32759;BME280;19125;52.360;9.974;2023-04-29T10:26:38;86234.88;;;-145.17;44.47
32759;BME280;19125;52.360;9.974;2023-04-29T10:29:04;86242.81;;;-145.17;43.97
32759;BME280;19125;52.360;9.974;2023-04-29T10:31:30;86232.91;;;-145.17;44.89
32759;BME280;19125;52.360;9.974;2023-04-29T10:33:57;86211.06;;;-145.17;44.93
32759;BME280;19125;52.360;9.974;2023-04-29T10:36:27;86217.03;;;-145.17;44.83
32759;BME280;19125;52.360;9.974;2023-04-29T10:38:57;86213.06;;;-145.17;44.89
32759;BME280;19125;52.360;9.974;2023-04-29T10:41:44;86207.09;;;-145.17;44.00
32759;BME280;19125;52.360;9.974;2023-04-29T10:44:11;86211.06;;;-145.17;43.91
32759;BME280;19125;52.360;9.974;2023-04-29T10:46:37;86183.28;;;-145.17;44.16
32759;BME280;19125;52.360;9.974;2023-04-29T10:49:03;86175.34;;;-145.17;44.31
32759;BME280;19125;52.360;9.974;2023-04-29T10:51:49;86107.88;;;-145.17;43.02
32759;BME280;19125;52.360;9.974;2023-04-29T10:54:18;86062.25;;;-145.17;42.89
32759;BME280;19125;52.360;9.974;2023-04-29T10:56:50;86064.22;;;-145.17;42.23
32759;BME280;19125;52.360;9.974;2023-04-29T10:59:21;86092.00;;;-145.17;42.31
32759;BME280;19125;52.360;9.974;2023-04-29T11:01:52;86155.50;;;-145.17;42.89
32759;BME280;19125;52.360;9.974;2023-04-29T11:04:19;86127.72;;;-145.17;42.59
32759;BME280;19125;52.360;9.974;2023-04-29T11:06:52;86133.69;;;-145.17;40.98
32759;BME280;19125;52.360;9.974;2023-04-29T11:09:31;86141.63;;;-145.17;40.48
32759;BME280;19125;52.360;9.974;2023-04-29T11:12:07;86119.78;;;-145.17;40.00
32759;BME280;19125;52.360;9.974;2023-04-29T11:14:41;86080.09;;;-145.17;40.23
32759;BME280;19125;52.360;9.974;2023-04-29T11:17:12;86056.28;;;-145.17;39.71
32759;BME280;19125;52.360;9.974;2023-04-29T11:19:42;86000.72;;;-145.17;39.35
32759;BME280;19125;52.360;9.974;2023-04-29T11:22:23;86028.50;;;-145.17;38.75
32759;BME280;19125;52.360;9.974;2023-04-29T11:24:50;86072.16;;;-145.17;38.79
32759;BME280;19125;52.360;9.974;2023-04-29T11:27:17;86062.25;;;-145.17;39.14
32759;BME280;19125;52.360;9.974;2023-04-29T11:29:44;86038.44;;;-145.17;39.01
32759;BME280;19125;52.360;9.974;2023-04-29T11:32:10;86050.34;;;-145.17;38.82
32759;BME280;19125;52.360;9.974;2023-04-29T11:34:36;86004.69;;;-145.17;38.58
32759;BME280;19125;52.360;9.974;2023-04-29T11:37:04;86016.59;;;-145.17;38.19
32759;BME280;19125;52.360;9.974;2023-04-29T11:39:33;86030.50;;;-145.17;37.77
32759;BME280;19125;52.360;9.974;2023-04-29T11:42:06;86018.59;;;-145.17;38.05
32759;BME280;19125;52.360;9.974;2023-04-29T11:44:35;86048.34;;;-145.17;37.31
32759;BME280;19125;52.360;9.974;2023-04-29T11:47:04;86062.25;;;-145.17;37.49
32759;BME280;19125;52.360;9.974;2023-04-29T11:49:33;86038.44;;;-145.17;37.34
32759;BME280;19125;52.360;9.974;2023-04-29T11:52:00;86038.44;;;-145.17;38.17
32759;BME280;19125;52.360;9.974;2023-04-29T11:54:26;85984.84;;;-145.17;37.43
32759;BME280;19125;52.360;9.974;2023-04-29T11:56:57;85959.06;;;-145.17;37.09
32759;BME280;19125;52.360;9.974;2023-04-29T11:59:22;85978.91;;;-145.17;37.62
32759;BME280;19125;52.360;9.974;2023-04-29T12:01:49;85988.81;;;-145.17;36.90
32759;BME280;19125;52.360;9.974;2023-04-29T12:04:14;86004.69;;;-145.17;37.31
32759;BME280;19125;52.360;9.974;2023-04-29T12:06:40;85957.06;;;-145.17;37.00
32759;BME280;19125;52.360;9.974;2023-04-29T12:09:06;85972.94;;;-145.17;36.93
32759;BME280;19125;52.360;9.974;2023-04-29T12:11:31;86000.72;;;-145.17;37.23
32759;BME280;19125;52.360;9.974;2023-04-29T12:13:57;85957.06;;;-145.17;36.87
32759;BME280;19125;52.360;9.974;2023-04-29T12:16:25;85909.44;;;-145.17;36.25
32759;BME280;19125;52.360;9.974;2023-04-29T12:18:53;85933.25;;;-145.17;36.53
32759;BME280;19125;52.360;9.974;2023-04-29T12:21:21;85905.47;;;-145.17;36.91
32759;BME280;19125;52.360;9.974;2023-04-29T12:23:47;85967.00;;;-145.17;36.91
32759;BME280;19125;52.360;9.974;2023-04-29T12:26:13;85988.81;;;-145.17;37.27
32759;BME280;19125;52.360;9.974;2023-04-29T12:28:39;85988.81;;;-145.17;37.31
32759;BME280;19125;52.360;9.974;2023-04-29T12:31:08;86008.66;;;-145.17;37.40
32759;BME280;19125;52.360;9.974;2023-04-29T12:33:34;86012.63;;;-145.17;37.47
32759;BME280;19125;52.360;9.974;2023-04-29T12:35:59;86024.53;;;-145.17;37.22
32759;BME280;19125;52.360;9.974;2023-04-29T12:38:28;86068.19;;;-145.17;37.69
32759;BME280;19125;52.360;9.974;2023-04-29T12:40:55;85961.03;;;-145.17;37.39
32759;BME280;19125;52.360;9.974;2023-04-29T12:43:27;85967.00;;;-145.17;36.91
32759;BME280;19125;52.360;9.974;2023-04-29T12:45:59;85929.28;;;-145.17;37.08
32759;BME280;19125;52.360;9.974;2023-04-29T12:48:29;85909.44;;;-145.17;36.50
32759;BME280;19125;52.360;9.974;2023-04-29T12:50:56;85881.69;;;-145.17;36.28
32759;BME280;19125;52.360;9.974;2023-04-29T12:53:24;85871.75;;;-145.17;36.02